RLSO2: Arkansas River, Ralston, OK

                                SHEF ID:       RLSO2     Arkansas River at Ralston, OK
STATION TYPE:
Regulating: Stage = 16.00, Flow = 78729

PRECIP STAGE STAGE(2) RIV-FLOW AIR-TEMP BAT-LOAD
in ft ft cfs F volt
Ccp-Rev Ccp-Rev Ccp-Rev Ccp-Rev Ccp-Rev Ccp-Rev
(America/Chicago)
03/23 00:00 0.00 3.48 3.51 562 56.48 12.71
03/23 01:00 0.00 3.47 3.54 554 54.14 12.70
03/23 02:00 0.00 3.52 3.56 594 51.80 12.69
03/23 03:00 0.00 3.53 3.54 602 49.64 12.68
03/23 04:00 0.00 3.52 3.55 594 47.66 12.67
03/23 05:00 0.00 3.53 3.55 602 45.68 12.67
03/23 06:00 0.00 3.52 3.55 594 43.70 12.65
03/23 07:00 0.00 3.52 3.55 594 42.44 12.65
03/23 08:00 0.00 3.52 3.53 594 43.34 12.63
03/23 09:00 0.00 3.48 3.51 562 49.10 12.67
03/23 10:00 0.00 3.46 3.53 546 53.78 12.96
03/23 11:00 0.00 3.50 3.54 578 57.56 13.23
03/23 12:00 0.00 3.51 3.52 586 59.90 13.22
03/23 13:00 0.00 3.51 3.48 586 62.42 13.22
03/23 14:00 0.00 3.43 3.48 523 64.94 13.24
03/23 15:00 0.00 3.46 3.51 546 68.00 13.23
03/23 16:00 0.00 3.50 3.51 578 67.28 13.26
03/23 17:00 0.00 3.48 3.50 562 65.12 13.03
03/23 18:00 0.00 3.48 3.50 562 63.32 12.97
03/23 19:00 0.00 3.47 3.50 554 61.52 12.90
03/23 20:00 0.00 3.47 3.50 554 59.00 12.84
03/23 21:00 0.00 3.46 3.50 546 57.02 12.81
03/23 22:00 0.00 3.47 3.51 554 56.30 12.79
03/23 23:00 0.00 3.48 3.51 562 56.12 12.77
Data processed at Tue 24Mar2026 04:21 GMT

NOTICE: If you are parsing this page

Please convert to using our Data API. Starting early 2026 we will be migrating to: https://water.usace.army.mil with modern pages rendered in JavaScript. When this migration completes you will no longer be able to scrape this page! CWMSDataAPI (CDA)

Timeseries IDs (TSIDs)

TSIDs used from left to right in the data table
RALS.Precip-Inc.Total.1Hour.1Hour.Ccp-Rev
RALS.Stage.Inst.1Hour.0.Ccp-Rev
RALS.Stage-Alt.Inst.1Hour.0.Ccp-Rev
RALS.Flow.Inst.1Hour.0.Ccp-Rev
RALS.Temp-Air.Inst.1Hour.0.Ccp-Rev
RALS.Volt-Battery Load.Inst.1Hour.0.Ccp-Rev

                            

All information presented herein is the property of the government of the United States of America and may be revised or deleted at any time without prior notice. Dissemination of this information without the expressed written consent of the Public Affairs Office, Tulsa District U.S. Army Corps of Engineers is strictly prohibited. These data are gathered electronically and, as presented, have NOT undergone any form of quality control. These data are NOT guaranteed to be valid or correct.